sensor_id;sensor_type;location;lat;lon;timestamp;temperature;humidity
30250;DHT22;17064;47.974;13.826;2024-01-16T00:05:16;-1.00;99.90
30250;DHT22;17064;47.974;13.826;2024-01-16T00:10:35;-1.00;99.90
30250;DHT22;17064;47.974;13.826;2024-01-16T00:15:55;-1.00;99.90
30250;DHT22;17064;47.974;13.826;2024-01-16T00:21:15;-1.10;99.90
30250;DHT22;17064;47.974;13.826;2024-01-16T00:26:35;-1.10;99.90
30250;DHT22;17064;47.974;13.826;2024-01-16T00:31:54;-1.10;99.90
30250;DHT22;17064;47.974;13.826;2024-01-16T00:37:13;-1.10;99.90
30250;DHT22;17064;47.974;13.826;2024-01-16T00:42:33;-1.10;99.90
30250;DHT22;17064;47.974;13.826;2024-01-16T00:47:52;-1.20;99.90
30250;DHT22;17064;47.974;13.826;2024-01-16T00:53:11;-1.10;99.90
30250;DHT22;17064;47.974;13.826;2024-01-16T00:58:30;-1.20;99.90
30250;DHT22;17064;47.974;13.826;2024-01-16T01:03:50;-1.20;99.90
30250;DHT22;17064;47.974;13.826;2024-01-16T01:09:09;-1.20;99.90
30250;DHT22;17064;47.974;13.826;2024-01-16T01:14:32;-1.20;99.90
30250;DHT22;17064;47.974;13.826;2024-01-16T01:19:51;-1.20;99.90
30250;DHT22;17064;47.974;13.826;2024-01-16T01:25:11;-1.20;99.90
30250;DHT22;17064;47.974;13.826;2024-01-16T01:30:31;-1.10;99.90
30250;DHT22;17064;47.974;13.826;2024-01-16T01:35:51;-1.10;99.90
30250;DHT22;17064;47.974;13.826;2024-01-16T01:41:10;-1.10;99.90
30250;DHT22;17064;47.974;13.826;2024-01-16T01:46:32;-1.20;99.90
30250;DHT22;17064;47.974;13.826;2024-01-16T01:51:52;-1.20;99.90
30250;DHT22;17064;47.974;13.826;2024-01-16T01:57:12;-1.20;99.90
30250;DHT22;17064;47.974;13.826;2024-01-16T02:02:31;-1.10;99.90
30250;DHT22;17064;47.974;13.826;2024-01-16T02:07:52;-1.10;99.90
30250;DHT22;17064;47.974;13.826;2024-01-16T02:13:11;-1.20;99.90
30250;DHT22;17064;47.974;13.826;2024-01-16T02:18:30;-1.20;99.90
30250;DHT22;17064;47.974;13.826;2024-01-16T02:23:49;-1.20;99.90
30250;DHT22;17064;47.974;13.826;2024-01-16T02:29:09;-1.20;99.90
30250;DHT22;17064;47.974;13.826;2024-01-16T02:34:28;-1.20;99.90
30250;DHT22;17064;47.974;13.826;2024-01-16T02:39:47;-1.20;99.90
30250;DHT22;17064;47.974;13.826;2024-01-16T02:45:07;-1.30;99.90
30250;DHT22;17064;47.974;13.826;2024-01-16T02:50:26;-1.30;99.90
30250;DHT22;17064;47.974;13.826;2024-01-16T02:55:46;-1.30;99.90
30250;DHT22;17064;47.974;13.826;2024-01-16T03:01:05;-1.30;99.90
30250;DHT22;17064;47.974;13.826;2024-01-16T03:06:25;-1.30;99.90
30250;DHT22;17064;47.974;13.826;2024-01-16T03:11:45;-1.30;99.90
30250;DHT22;17064;47.974;13.826;2024-01-16T03:17:04;-1.30;99.90
30250;DHT22;17064;47.974;13.826;2024-01-16T03:22:24;-1.30;99.90
30250;DHT22;17064;47.974;13.826;2024-01-16T03:27:44;-1.40;99.90
30250;DHT22;17064;47.974;13.826;2024-01-16T03:33:04;-1.30;99.90
30250;DHT22;17064;47.974;13.826;2024-01-16T03:38:24;-1.30;99.90
30250;DHT22;17064;47.974;13.826;2024-01-16T03:43:43;-1.30;99.90
30250;DHT22;17064;47.974;13.826;2024-01-16T03:49:02;-1.40;99.90
30250;DHT22;17064;47.974;13.826;2024-01-16T03:54:21;-1.40;99.90
30250;DHT22;17064;47.974;13.826;2024-01-16T03:59:40;-1.40;99.90
30250;DHT22;17064;47.974;13.826;2024-01-16T04:05:00;-1.40;99.90
30250;DHT22;17064;47.974;13.826;2024-01-16T04:10:19;-1.30;99.90
30250;DHT22;17064;47.974;13.826;2024-01-16T04:15:39;-1.30;99.90
30250;DHT22;17064;47.974;13.826;2024-01-16T04:20:59;-1.30;99.90
30250;DHT22;17064;47.974;13.826;2024-01-16T04:26:18;-1.40;99.90
30250;DHT22;17064;47.974;13.826;2024-01-16T04:31:41;-1.40;99.90
30250;DHT22;17064;47.974;13.826;2024-01-16T04:37:00;-1.40;99.90
30250;DHT22;17064;47.974;13.826;2024-01-16T04:42:19;-1.40;99.90
30250;DHT22;17064;47.974;13.826;2024-01-16T04:47:38;-1.40;99.90
30250;DHT22;17064;47.974;13.826;2024-01-16T04:52:58;-1.40;99.90
30250;DHT22;17064;47.974;13.826;2024-01-16T04:58:21;-1.40;99.90
30250;DHT22;17064;47.974;13.826;2024-01-16T05:03:40;-1.40;99.90
30250;DHT22;17064;47.974;13.826;2024-01-16T05:08:59;-1.40;99.90
30250;DHT22;17064;47.974;13.826;2024-01-16T05:14:18;-1.40;99.90
30250;DHT22;17064;47.974;13.826;2024-01-16T05:19:38;-1.40;99.90
30250;DHT22;17064;47.974;13.826;2024-01-16T05:24:59;-1.40;99.90
30250;DHT22;17064;47.974;13.826;2024-01-16T05:30:19;-1.40;99.90
30250;DHT22;17064;47.974;13.826;2024-01-16T05:35:38;-1.30;99.90
30250;DHT22;17064;47.974;13.826;2024-01-16T05:40:58;-1.30;99.90
30250;DHT22;17064;47.974;13.826;2024-01-16T05:46:17;-1.30;99.90
30250;DHT22;17064;47.974;13.826;2024-01-16T05:51:37;-1.40;99.90
30250;DHT22;17064;47.974;13.826;2024-01-16T05:56:56;-1.50;99.90
30250;DHT22;17064;47.974;13.826;2024-01-16T06:02:15;-1.50;99.90
30250;DHT22;17064;47.974;13.826;2024-01-16T06:07:34;-1.60;99.90
30250;DHT22;17064;47.974;13.826;2024-01-16T06:12:54;-1.70;99.90
30250;DHT22;17064;47.974;13.826;2024-01-16T06:18:13;-1.70;99.90
30250;DHT22;17064;47.974;13.826;2024-01-16T06:23:32;-1.80;99.90
30250;DHT22;17064;47.974;13.826;2024-01-16T06:28:52;-1.90;99.90
30250;DHT22;17064;47.974;13.826;2024-01-16T06:34:11;-1.90;99.90
30250;DHT22;17064;47.974;13.826;2024-01-16T06:39:30;-1.80;99.90
30250;DHT22;17064;47.974;13.826;2024-01-16T06:44:50;-1.80;99.90
30250;DHT22;17064;47.974;13.826;2024-01-16T06:50:09;-1.90;99.90
30250;DHT22;17064;47.974;13.826;2024-01-16T06:55:28;-1.90;99.90
30250;DHT22;17064;47.974;13.826;2024-01-16T07:00:47;-1.90;99.90
30250;DHT22;17064;47.974;13.826;2024-01-16T07:06:07;-1.90;99.90
30250;DHT22;17064;47.974;13.826;2024-01-16T07:11:26;-1.90;99.90
30250;DHT22;17064;47.974;13.826;2024-01-16T07:16:46;-1.80;99.90
30250;DHT22;17064;47.974;13.826;2024-01-16T07:22:05;-1.80;99.90
30250;DHT22;17064;47.974;13.826;2024-01-16T07:27:24;-1.70;99.90
30250;DHT22;17064;47.974;13.826;2024-01-16T07:32:44;-1.70;99.90
30250;DHT22;17064;47.974;13.826;2024-01-16T07:38:04;-1.70;99.90
30250;DHT22;17064;47.974;13.826;2024-01-16T07:43:23;-1.70;99.90
30250;DHT22;17064;47.974;13.826;2024-01-16T07:48:42;-1.70;99.90
30250;DHT22;17064;47.974;13.826;2024-01-16T07:54:07;-1.70;99.90
30250;DHT22;17064;47.974;13.826;2024-01-16T07:59:27;-1.50;99.90
30250;DHT22;17064;47.974;13.826;2024-01-16T08:04:46;-1.30;99.90
30250;DHT22;17064;47.974;13.826;2024-01-16T08:10:08;-1.00;99.90
30250;DHT22;17064;47.974;13.826;2024-01-16T08:15:27;-0.80;99.90
30250;DHT22;17064;47.974;13.826;2024-01-16T08:20:46;-0.50;99.90
30250;DHT22;17064;47.974;13.826;2024-01-16T08:26:05;-0.40;99.90
30250;DHT22;17064;47.974;13.826;2024-01-16T08:31:25;-0.10;99.90
30250;DHT22;17064;47.974;13.826;2024-01-16T08:36:44;0.10;99.90
30250;DHT22;17064;47.974;13.826;2024-01-16T08:42:04;0.20;99.90
30250;DHT22;17064;47.974;13.826;2024-01-16T08:47:23;0.30;99.90
30250;DHT22;17064;47.974;13.826;2024-01-16T08:52:42;0.40;99.90
30250;DHT22;17064;47.974;13.826;2024-01-16T08:58:01;0.40;99.90
30250;DHT22;17064;47.974;13.826;2024-01-16T09:03:21;0.50;99.90
30250;DHT22;17064;47.974;13.826;2024-01-16T09:08:40;0.80;99.90
30250;DHT22;17064;47.974;13.826;2024-01-16T09:13:59;1.00;99.90
30250;DHT22;17064;47.974;13.826;2024-01-16T09:19:18;1.20;99.90
30250;DHT22;17064;47.974;13.826;2024-01-16T09:24:38;1.20;99.90
30250;DHT22;17064;47.974;13.826;2024-01-16T09:29:57;1.30;99.90
30250;DHT22;17064;47.974;13.826;2024-01-16T09:35:17;1.40;99.90
30250;DHT22;17064;47.974;13.826;2024-01-16T09:40:36;1.60;99.90
30250;DHT22;17064;47.974;13.826;2024-01-16T09:45:56;1.80;99.90
30250;DHT22;17064;47.974;13.826;2024-01-16T09:51:20;1.70;99.90
30250;DHT22;17064;47.974;13.826;2024-01-16T09:56:42;1.80;99.90
30250;DHT22;17064;47.974;13.826;2024-01-16T10:02:02;2.00;99.90
30250;DHT22;17064;47.974;13.826;2024-01-16T10:07:26;2.10;99.90
30250;DHT22;17064;47.974;13.826;2024-01-16T10:12:47;2.20;99.40
30250;DHT22;17064;47.974;13.826;2024-01-16T10:18:22;2.10;99.90
30250;DHT22;17064;47.974;13.826;2024-01-16T10:23:43;2.20;99.90
30250;DHT22;17064;47.974;13.826;2024-01-16T10:29:03;2.30;97.90
30250;DHT22;17064;47.974;13.826;2024-01-16T10:34:25;2.40;98.90
30250;DHT22;17064;47.974;13.826;2024-01-16T10:39:50;2.60;97.60
30250;DHT22;17064;47.974;13.826;2024-01-16T10:45:16;2.70;96.20
30250;DHT22;17064;47.974;13.826;2024-01-16T10:50:38;2.70;94.70
30250;DHT22;17064;47.974;13.826;2024-01-16T10:55:57;2.70;93.50
30250;DHT22;17064;47.974;13.826;2024-01-16T11:01:18;2.80;92.40
30250;DHT22;17064;47.974;13.826;2024-01-16T11:06:39;2.60;92.90
30250;DHT22;17064;47.974;13.826;2024-01-16T11:11:59;2.70;93.40
30250;DHT22;17064;47.974;13.826;2024-01-16T11:17:19;2.80;93.40
30250;DHT22;17064;47.974;13.826;2024-01-16T11:22:42;2.80;92.50
30250;DHT22;17064;47.974;13.826;2024-01-16T11:28:15;2.80;89.00
30250;DHT22;17064;47.974;13.826;2024-01-16T11:38:57;3.00;89.40
30250;DHT22;17064;47.974;13.826;2024-01-16T11:44:46;3.10;89.90
30250;DHT22;17064;47.974;13.826;2024-01-16T11:50:27;3.20;85.50
30250;DHT22;17064;47.974;13.826;2024-01-16T11:55:57;3.10;83.80
30250;DHT22;17064;47.974;13.826;2024-01-16T12:01:20;3.10;89.00
30250;DHT22;17064;47.974;13.826;2024-01-16T12:06:40;3.30;89.20
30250;DHT22;17064;47.974;13.826;2024-01-16T12:12:01;3.40;89.90
30250;DHT22;17064;47.974;13.826;2024-01-16T12:17:20;3.30;87.60
30250;DHT22;17064;47.974;13.826;2024-01-16T12:22:40;3.20;88.00
30250;DHT22;17064;47.974;13.826;2024-01-16T12:28:04;3.20;88.10
30250;DHT22;17064;47.974;13.826;2024-01-16T12:33:24;3.40;86.70
30250;DHT22;17064;47.974;13.826;2024-01-16T12:38:43;3.60;88.10
30250;DHT22;17064;47.974;13.826;2024-01-16T12:44:03;3.60;86.50
30250;DHT22;17064;47.974;13.826;2024-01-16T12:49:23;3.60;82.80
30250;DHT22;17064;47.974;13.826;2024-01-16T12:54:43;3.50;84.20
30250;DHT22;17064;47.974;13.826;2024-01-16T13:00:21;3.40;81.00
30250;DHT22;17064;47.974;13.826;2024-01-16T13:05:42;3.10;81.60
30250;DHT22;17064;47.974;13.826;2024-01-16T13:11:06;3.30;81.60
30250;DHT22;17064;47.974;13.826;2024-01-16T13:16:25;3.90;79.00
30250;DHT22;17064;47.974;13.826;2024-01-16T13:21:45;4.60;76.80
30250;DHT22;17064;47.974;13.826;2024-01-16T13:27:04;5.10;77.40
30250;DHT22;17064;47.974;13.826;2024-01-16T13:32:25;5.50;74.80
30250;DHT22;17064;47.974;13.826;2024-01-16T13:37:45;5.70;71.50
30250;DHT22;17064;47.974;13.826;2024-01-16T13:43:05;5.50;72.90
30250;DHT22;17064;47.974;13.826;2024-01-16T13:48:25;4.60;73.20
30250;DHT22;17064;47.974;13.826;2024-01-16T13:53:45;3.70;77.70
30250;DHT22;17064;47.974;13.826;2024-01-16T13:59:04;3.10;78.70
30250;DHT22;17064;47.974;13.826;2024-01-16T14:04:23;2.50;81.50
30250;DHT22;17064;47.974;13.826;2024-01-16T14:09:42;2.20;85.50
30250;DHT22;17064;47.974;13.826;2024-01-16T14:15:02;2.10;87.70
30250;DHT22;17064;47.974;13.826;2024-01-16T14:20:28;1.80;89.50
30250;DHT22;17064;47.974;13.826;2024-01-16T14:25:49;1.50;90.50
30250;DHT22;17064;47.974;13.826;2024-01-16T14:31:08;1.30;90.10
30250;DHT22;17064;47.974;13.826;2024-01-16T14:36:28;1.10;90.20
30250;DHT22;17064;47.974;13.826;2024-01-16T14:41:47;1.10;91.80
30250;DHT22;17064;47.974;13.826;2024-01-16T14:47:07;1.10;92.50
30250;DHT22;17064;47.974;13.826;2024-01-16T14:52:27;0.90;92.80
30250;DHT22;17064;47.974;13.826;2024-01-16T14:57:46;0.80;94.50
30250;DHT22;17064;47.974;13.826;2024-01-16T15:03:11;0.70;95.10
30250;DHT22;17064;47.974;13.826;2024-01-16T15:08:30;0.60;95.80
30250;DHT22;17064;47.974;13.826;2024-01-16T15:13:51;0.60;96.80
30250;DHT22;17064;47.974;13.826;2024-01-16T15:19:11;0.40;96.90
30250;DHT22;17064;47.974;13.826;2024-01-16T15:24:30;0.20;97.80
30250;DHT22;17064;47.974;13.826;2024-01-16T15:29:49;0.10;98.30
30250;DHT22;17064;47.974;13.826;2024-01-16T15:35:09;0.00;98.60
30250;DHT22;17064;47.974;13.826;2024-01-16T15:40:30;-0.10;99.20
30250;DHT22;17064;47.974;13.826;2024-01-16T15:45:49;-0.30;99.80
30250;DHT22;17064;47.974;13.826;2024-01-16T15:51:09;-0.40;99.90
30250;DHT22;17064;47.974;13.826;2024-01-16T15:56:29;-0.50;99.90
30250;DHT22;17064;47.974;13.826;2024-01-16T16:01:49;-0.60;99.90
30250;DHT22;17064;47.974;13.826;2024-01-16T16:07:10;-0.70;99.90
30250;DHT22;17064;47.974;13.826;2024-01-16T16:12:29;-0.70;99.90
30250;DHT22;17064;47.974;13.826;2024-01-16T16:17:49;-0.80;99.90
30250;DHT22;17064;47.974;13.826;2024-01-16T16:23:08;-0.90;99.90
30250;DHT22;17064;47.974;13.826;2024-01-16T16:28:27;-1.00;99.90
30250;DHT22;17064;47.974;13.826;2024-01-16T16:33:46;-1.10;99.90
30250;DHT22;17064;47.974;13.826;2024-01-16T16:39:06;-1.20;99.90
30250;DHT22;17064;47.974;13.826;2024-01-16T16:44:25;-1.40;99.90
30250;DHT22;17064;47.974;13.826;2024-01-16T16:49:45;-1.50;99.90
30250;DHT22;17064;47.974;13.826;2024-01-16T16:55:04;-1.60;99.90
30250;DHT22;17064;47.974;13.826;2024-01-16T17:00:24;-1.60;99.90
30250;DHT22;17064;47.974;13.826;2024-01-16T17:05:43;-1.70;99.90
30250;DHT22;17064;47.974;13.826;2024-01-16T17:11:06;-1.70;99.90
30250;DHT22;17064;47.974;13.826;2024-01-16T17:16:26;-1.80;99.90
30250;DHT22;17064;47.974;13.826;2024-01-16T17:21:47;-1.80;99.90
30250;DHT22;17064;47.974;13.826;2024-01-16T17:27:06;-1.90;99.90
30250;DHT22;17064;47.974;13.826;2024-01-16T17:32:26;-2.00;99.90
30250;DHT22;17064;47.974;13.826;2024-01-16T17:37:45;-2.10;99.90
30250;DHT22;17064;47.974;13.826;2024-01-16T17:43:05;-2.10;99.90
30250;DHT22;17064;47.974;13.826;2024-01-16T17:48:24;-2.20;99.90
30250;DHT22;17064;47.974;13.826;2024-01-16T17:53:44;-2.20;99.90
30250;DHT22;17064;47.974;13.826;2024-01-16T17:59:04;-2.20;99.90
30250;DHT22;17064;47.974;13.826;2024-01-16T18:04:24;-2.20;99.90
30250;DHT22;17064;47.974;13.826;2024-01-16T18:09:43;-2.20;99.90
30250;DHT22;17064;47.974;13.826;2024-01-16T18:15:04;-2.20;99.90
30250;DHT22;17064;47.974;13.826;2024-01-16T18:20:24;-2.30;99.90
30250;DHT22;17064;47.974;13.826;2024-01-16T18:25:44;-2.40;99.90
30250;DHT22;17064;47.974;13.826;2024-01-16T18:31:05;-2.60;99.90
30250;DHT22;17064;47.974;13.826;2024-01-16T18:36:27;-2.80;99.90
30250;DHT22;17064;47.974;13.826;2024-01-16T18:41:51;-3.00;99.90
30250;DHT22;17064;47.974;13.826;2024-01-16T18:47:11;-3.10;99.90
30250;DHT22;17064;47.974;13.826;2024-01-16T18:52:31;-3.30;99.90
30250;DHT22;17064;47.974;13.826;2024-01-16T18:57:50;-3.50;99.90
30250;DHT22;17064;47.974;13.826;2024-01-16T19:03:10;-3.60;99.90
30250;DHT22;17064;47.974;13.826;2024-01-16T19:08:31;-3.70;99.90
30250;DHT22;17064;47.974;13.826;2024-01-16T19:13:51;-3.80;99.90
30250;DHT22;17064;47.974;13.826;2024-01-16T19:19:11;-4.10;99.90
30250;DHT22;17064;47.974;13.826;2024-01-16T19:24:31;-4.40;99.90
30250;DHT22;17064;47.974;13.826;2024-01-16T19:29:51;-4.50;99.90
30250;DHT22;17064;47.974;13.826;2024-01-16T19:35:10;-4.50;99.90
30250;DHT22;17064;47.974;13.826;2024-01-16T19:40:30;-4.70;99.90
30250;DHT22;17064;47.974;13.826;2024-01-16T19:45:50;-4.80;99.90
30250;DHT22;17064;47.974;13.826;2024-01-16T19:51:10;-4.90;99.90
30250;DHT22;17064;47.974;13.826;2024-01-16T19:56:29;-5.10;99.90
30250;DHT22;17064;47.974;13.826;2024-01-16T20:01:48;-5.30;99.90
30250;DHT22;17064;47.974;13.826;2024-01-16T20:07:08;-5.40;99.90
30250;DHT22;17064;47.974;13.826;2024-01-16T20:12:27;-5.60;99.90
30250;DHT22;17064;47.974;13.826;2024-01-16T20:17:48;-5.70;99.90
30250;DHT22;17064;47.974;13.826;2024-01-16T20:23:07;-5.60;99.90
30250;DHT22;17064;47.974;13.826;2024-01-16T20:28:27;-5.70;99.90
30250;DHT22;17064;47.974;13.826;2024-01-16T20:33:46;-5.80;99.90
30250;DHT22;17064;47.974;13.826;2024-01-16T20:39:08;-5.80;99.90
30250;DHT22;17064;47.974;13.826;2024-01-16T20:44:28;-5.90;99.90
30250;DHT22;17064;47.974;13.826;2024-01-16T20:49:51;-6.00;99.90
30250;DHT22;17064;47.974;13.826;2024-01-16T20:55:11;-6.00;99.90
30250;DHT22;17064;47.974;13.826;2024-01-16T21:00:30;-6.10;99.90
30250;DHT22;17064;47.974;13.826;2024-01-16T21:05:52;-6.30;99.90
30250;DHT22;17064;47.974;13.826;2024-01-16T21:11:13;-6.50;99.90
30250;DHT22;17064;47.974;13.826;2024-01-16T21:16:32;-6.60;99.90
30250;DHT22;17064;47.974;13.826;2024-01-16T21:21:52;-6.50;99.90
30250;DHT22;17064;47.974;13.826;2024-01-16T21:27:13;-6.50;99.90
30250;DHT22;17064;47.974;13.826;2024-01-16T21:32:33;-6.40;99.90
30250;DHT22;17064;47.974;13.826;2024-01-16T21:37:53;-6.40;99.90
30250;DHT22;17064;47.974;13.826;2024-01-16T21:43:12;-6.40;99.90
30250;DHT22;17064;47.974;13.826;2024-01-16T21:48:31;-6.40;99.90
30250;DHT22;17064;47.974;13.826;2024-01-16T21:53:51;-6.40;99.90
30250;DHT22;17064;47.974;13.826;2024-01-16T21:59:10;-6.40;99.90
30250;DHT22;17064;47.974;13.826;2024-01-16T22:04:29;-6.50;99.90
30250;DHT22;17064;47.974;13.826;2024-01-16T22:09:48;-6.60;99.90
30250;DHT22;17064;47.974;13.826;2024-01-16T22:15:08;-6.70;99.90
30250;DHT22;17064;47.974;13.826;2024-01-16T22:20:30;-6.70;99.90
30250;DHT22;17064;47.974;13.826;2024-01-16T22:25:51;-6.90;99.90
30250;DHT22;17064;47.974;13.826;2024-01-16T22:31:11;-7.10;99.90
30250;DHT22;17064;47.974;13.826;2024-01-16T22:36:30;-7.20;99.90
30250;DHT22;17064;47.974;13.826;2024-01-16T22:41:49;-7.30;99.90
30250;DHT22;17064;47.974;13.826;2024-01-16T22:47:09;-7.20;99.90
30250;DHT22;17064;47.974;13.826;2024-01-16T22:52:28;-7.30;99.90
30250;DHT22;17064;47.974;13.826;2024-01-16T22:57:47;-7.30;99.90
30250;DHT22;17064;47.974;13.826;2024-01-16T23:03:06;-7.60;99.90
30250;DHT22;17064;47.974;13.826;2024-01-16T23:08:28;-7.90;99.90
30250;DHT22;17064;47.974;13.826;2024-01-16T23:13:47;-8.00;99.90
30250;DHT22;17064;47.974;13.826;2024-01-16T23:19:07;-8.10;99.90
30250;DHT22;17064;47.974;13.826;2024-01-16T23:24:26;-8.30;99.90
30250;DHT22;17064;47.974;13.826;2024-01-16T23:29:47;-8.40;99.90
30250;DHT22;17064;47.974;13.826;2024-01-16T23:35:06;-8.40;99.90
30250;DHT22;17064;47.974;13.826;2024-01-16T23:40:26;-8.50;99.90
30250;DHT22;17064;47.974;13.826;2024-01-16T23:45:45;-8.60;99.90
30250;DHT22;17064;47.974;13.826;2024-01-16T23:51:05;-8.60;99.90
30250;DHT22;17064;47.974;13.826;2024-01-16T23:56:25;-8.50;99.90
